createdAt,value
2022-10-06T00:01:22.403Z,11.18
2022-10-06T00:03:24.471Z,11.18
2022-10-06T00:05:26.219Z,11.24
2022-10-06T00:07:27.829Z,11.27
2022-10-06T00:09:29.610Z,11.32
2022-10-06T00:11:49.777Z,11.31
2022-10-06T00:13:51.483Z,11.30
2022-10-06T00:15:53.231Z,11.24
2022-10-06T00:17:56.680Z,11.25
2022-10-06T00:19:58.246Z,11.23
2022-10-06T00:21:59.962Z,11.25
2022-10-06T00:24:01.559Z,11.26
2022-10-06T00:26:03.265Z,11.22
2022-10-06T00:28:05.203Z,11.23
2022-10-06T00:30:09.903Z,11.25
2022-10-06T00:32:11.523Z,11.26
2022-10-06T00:34:13.251Z,11.25
2022-10-06T00:36:14.928Z,11.26
2022-10-06T00:38:17.111Z,11.23
2022-10-06T00:40:19.099Z,11.26
2022-10-06T00:42:25.498Z,11.22
2022-10-06T00:44:27.097Z,11.17
2022-10-06T00:46:34.726Z,11.13
2022-10-06T00:48:36.647Z,11.12
2022-10-06T00:50:38.644Z,11.10
2022-10-06T00:52:40.608Z,11.05
2022-10-06T00:54:42.802Z,11.05
2022-10-06T00:56:45.120Z,11.05
2022-10-06T00:58:46.737Z,11.10
2022-10-06T01:00:50.658Z,11.10
2022-10-06T01:02:58.324Z,11.14
2022-10-06T01:05:01.906Z,11.16
2022-10-06T01:07:03.676Z,11.17
2022-10-06T01:09:05.299Z,11.18
2022-10-06T01:11:13.172Z,11.17
2022-10-06T01:13:16.023Z,11.13
2022-10-06T01:15:18.306Z,11.06
2022-10-06T01:17:42.364Z,10.54
2022-10-06T01:19:49.872Z,10.34
2022-10-06T01:21:53.795Z,9.95
2022-10-06T01:23:57.240Z,9.71
2022-10-06T01:25:59.397Z,9.62
2022-10-06T01:28:02.142Z,9.67
2022-10-06T01:30:05.588Z,9.76
2022-10-06T01:32:32.714Z,9.81
2022-10-06T01:34:34.307Z,9.93
2022-10-06T01:36:35.887Z,9.92
2022-10-06T01:38:37.591Z,9.87
2022-10-06T01:40:39.165Z,9.84
2022-10-06T01:42:40.871Z,9.82
2022-10-06T01:44:42.510Z,9.85
2022-10-06T01:46:44.142Z,9.78
2022-10-06T01:48:45.775Z,9.75
2022-10-06T01:50:47.431Z,9.82
2022-10-06T01:52:49.143Z,9.87
2022-10-06T01:54:50.785Z,9.98
2022-10-06T01:56:52.696Z,10.05
2022-10-06T01:58:54.342Z,10.12
2022-10-06T02:00:56.214Z,10.19
2022-10-06T02:02:57.897Z,10.22
2022-10-06T02:04:59.576Z,10.23
2022-10-06T02:07:01.518Z,10.31
2022-10-06T02:09:03.295Z,10.32
2022-10-06T02:11:07.819Z,10.30
2022-10-06T02:13:09.851Z,10.29
2022-10-06T02:15:11.728Z,10.30
2022-10-06T02:17:13.340Z,10.32
2022-10-06T02:19:14.960Z,10.31
2022-10-06T02:21:21.630Z,10.32
2022-10-06T02:23:23.281Z,10.34
2022-10-06T02:25:25.029Z,10.34
2022-10-06T02:27:26.608Z,10.33
2022-10-06T02:29:28.153Z,10.34
2022-10-06T02:31:29.899Z,10.36
2022-10-06T02:33:31.726Z,10.32
2022-10-06T02:35:33.319Z,10.30
2022-10-06T02:37:35.113Z,10.28
2022-10-06T02:39:36.683Z,10.30
2022-10-06T02:41:38.285Z,10.34
2022-10-06T02:43:39.966Z,10.33
2022-10-06T02:45:43.280Z,10.34
2022-10-06T02:47:44.960Z,10.35
2022-10-06T02:49:46.859Z,10.32
2022-10-06T02:51:48.443Z,10.29
2022-10-06T02:53:50.607Z,10.14
2022-10-06T02:55:59.362Z,9.99
2022-10-06T02:58:01.024Z,9.94
2022-10-06T03:00:03.644Z,9.95
2022-10-06T03:02:05.498Z,10.02
2022-10-06T03:04:07.268Z,10.00
2022-10-06T03:06:31.290Z,10.07
2022-10-06T03:08:33.928Z,10.12
2022-10-06T03:10:35.589Z,10.12
2022-10-06T03:12:37.263Z,10.11
2022-10-06T03:14:39.214Z,10.10
2022-10-06T03:16:42.553Z,10.11
2022-10-06T03:18:49.442Z,10.09
2022-10-06T03:20:51.904Z,10.13
2022-10-06T03:22:54.307Z,10.13
2022-10-06T03:24:55.938Z,10.15
2022-10-06T03:26:58.497Z,10.16
2022-10-06T03:29:03.011Z,10.17
2022-10-06T03:31:06.179Z,10.16
2022-10-06T03:33:07.889Z,10.11
2022-10-06T03:35:09.778Z,10.08
2022-10-06T03:37:11.633Z,10.07
2022-10-06T03:39:13.318Z,9.77
2022-10-06T03:41:17.362Z,9.23
2022-10-06T03:43:19.067Z,8.89
2022-10-06T03:45:20.700Z,8.79
2022-10-06T03:47:22.318Z,8.59
2022-10-06T03:49:23.903Z,8.58
2022-10-06T03:51:28.490Z,8.63
2022-10-06T03:53:31.033Z,8.69
2022-10-06T03:55:32.596Z,8.55
2022-10-06T03:57:34.232Z,8.65
2022-10-06T03:59:35.906Z,8.69
2022-10-06T04:01:40.161Z,8.43
2022-10-06T04:03:42.315Z,8.38
2022-10-06T04:05:53.340Z,8.32
2022-10-06T04:07:54.986Z,8.38
2022-10-06T04:09:56.583Z,8.50
2022-10-06T04:11:58.132Z,8.64
2022-10-06T04:14:04.713Z,8.55
2022-10-06T04:16:21.127Z,7.86
2022-10-06T04:18:22.864Z,7.58
2022-10-06T04:20:24.473Z,7.28
2022-10-06T04:22:26.152Z,7.14
2022-10-06T04:24:27.730Z,7.17
2022-10-06T04:26:32.393Z,7.31
2022-10-06T04:28:34.715Z,7.38
2022-10-06T04:30:36.480Z,7.59
2022-10-06T04:32:38.205Z,7.82
2022-10-06T04:34:39.796Z,7.92
2022-10-06T04:36:42.603Z,7.62
2022-10-06T04:38:44.380Z,7.32
2022-10-06T04:40:45.961Z,7.16
2022-10-06T04:42:47.807Z,6.91
2022-10-06T04:44:49.690Z,7.05
2022-10-06T04:46:51.319Z,7.05
2022-10-06T04:48:54.183Z,7.26
2022-10-06T04:51:00.708Z,7.50
2022-10-06T04:53:02.365Z,7.79
2022-10-06T04:55:04.380Z,8.04
2022-10-06T04:57:06.041Z,8.26
2022-10-06T04:59:07.617Z,8.42
2022-10-06T05:01:33.348Z,8.59
2022-10-06T05:03:34.914Z,8.68
2022-10-06T05:05:36.560Z,8.76
2022-10-06T05:07:38.254Z,8.87
2022-10-06T05:09:39.864Z,9.01
2022-10-06T05:11:41.773Z,9.08
2022-10-06T05:13:43.569Z,9.15
2022-10-06T05:15:55.704Z,9.23
2022-10-06T05:17:57.421Z,9.35
2022-10-06T05:19:58.974Z,9.47
2022-10-06T05:22:00.594Z,9.57
2022-10-06T05:24:03.545Z,9.61
2022-10-06T05:26:05.790Z,9.67
2022-10-06T05:28:07.473Z,9.80
2022-10-06T05:30:10.109Z,9.93
2022-10-06T05:32:11.666Z,10.06
2022-10-06T05:34:13.221Z,10.18
2022-10-06T05:36:19.977Z,10.25
2022-10-06T05:38:22.287Z,10.36
2022-10-06T05:40:25.023Z,10.47
2022-10-06T05:42:29.630Z,10.59
2022-10-06T05:44:31.609Z,10.71
2022-10-06T05:46:34.025Z,10.81
2022-10-06T05:48:35.854Z,10.81
2022-10-06T05:50:37.447Z,10.86
2022-10-06T05:52:39.032Z,10.94
2022-10-06T05:54:40.601Z,11.00
2022-10-06T05:56:42.239Z,11.08
2022-10-06T05:58:45.664Z,11.15
2022-10-06T06:00:47.282Z,11.11
2022-10-06T06:02:48.982Z,10.97
2022-10-06T06:04:50.755Z,10.97
2022-10-06T06:06:52.373Z,10.97
2022-10-06T06:08:58.668Z,11.02
2022-10-06T06:11:09.836Z,11.13
2022-10-06T06:13:11.409Z,11.24
2022-10-06T06:15:31.805Z,11.39
2022-10-06T06:17:33.934Z,11.46
2022-10-06T06:19:35.626Z,11.52
2022-10-06T06:21:37.784Z,11.61
2022-10-06T06:23:41.935Z,11.67
2022-10-06T06:25:44.300Z,11.78
2022-10-06T06:27:46.129Z,11.70
2022-10-06T06:29:47.932Z,11.59
2022-10-06T06:31:51.100Z,11.33
2022-10-06T06:33:56.850Z,11.24
2022-10-06T06:36:03.382Z,11.13
2022-10-06T06:38:11.690Z,10.93
2022-10-06T06:40:13.439Z,10.88
2022-10-06T06:42:15.262Z,11.02
2022-10-06T06:44:17.817Z,11.22
2022-10-06T06:46:24.330Z,11.43
2022-10-06T06:48:26.369Z,11.37
2022-10-06T06:50:28.835Z,11.46
2022-10-06T06:52:31.230Z,11.63
2022-10-06T06:54:32.833Z,11.86
2022-10-06T06:56:35.434Z,12.03
2022-10-06T06:58:37.245Z,12.13
2022-10-06T07:00:38.817Z,12.17
2022-10-06T07:02:40.396Z,12.23
2022-10-06T07:04:42.257Z,12.39
2022-10-06T07:06:53.512Z,12.53
2022-10-06T07:08:55.920Z,12.64
2022-10-06T07:10:58.355Z,12.75
2022-10-06T07:12:59.939Z,12.84
2022-10-06T07:15:20.426Z,12.89
2022-10-06T07:17:40.775Z,12.43
2022-10-06T07:19:51.329Z,11.73
2022-10-06T07:22:16.706Z,11.45
2022-10-06T07:24:37.460Z,11.53
2022-10-06T07:26:39.007Z,11.90
2022-10-06T07:28:42.373Z,12.25
2022-10-06T07:30:45.128Z,12.27
2022-10-06T07:32:47.865Z,12.42
2022-10-06T07:34:50.295Z,12.63
2022-10-06T07:36:54.031Z,12.89
2022-10-06T07:38:55.841Z,13.09
2022-10-06T07:41:18.519Z,13.03
2022-10-06T07:43:20.139Z,13.10
2022-10-06T07:45:39.080Z,12.99
2022-10-06T07:47:40.905Z,12.93
2022-10-06T07:49:43.083Z,12.64
2022-10-06T07:51:44.982Z,12.71
2022-10-06T07:53:50.941Z,12.82
2022-10-06T07:55:52.706Z,12.99
2022-10-06T07:57:54.301Z,13.18
2022-10-06T07:59:59.185Z,13.38
2022-10-06T08:02:04.522Z,13.49
2022-10-06T08:04:07.136Z,13.61
2022-10-06T08:06:13.961Z,13.82
2022-10-06T08:08:16.831Z,14.09
2022-10-06T08:10:18.539Z,14.31
2022-10-06T08:12:37.929Z,14.24
2022-10-06T08:14:39.721Z,13.91
2022-10-06T08:16:41.575Z,13.83
2022-10-06T08:18:47.056Z,13.87
2022-10-06T08:20:49.000Z,13.42
2022-10-06T08:22:50.829Z,13.42
2022-10-06T08:25:05.150Z,13.33
2022-10-06T08:27:10.012Z,13.35
2022-10-06T08:29:11.782Z,13.65
2022-10-06T08:31:15.960Z,13.67
2022-10-06T08:33:21.158Z,13.74
2022-10-06T08:35:24.198Z,13.88
2022-10-06T08:37:27.043Z,13.78
2022-10-06T08:39:30.908Z,13.64
2022-10-06T08:41:32.335Z,13.92
2022-10-06T08:43:34.826Z,14.08
2022-10-06T08:45:43.837Z,14.25
2022-10-06T08:47:59.936Z,14.62
2022-10-06T08:50:04.382Z,14.98
2022-10-06T08:52:36.495Z,15.29
2022-10-06T08:54:58.919Z,15.61
2022-10-06T08:57:05.621Z,15.54
2022-10-06T08:59:08.421Z,15.45
2022-10-06T09:01:26.180Z,15.41
2022-10-06T09:03:29.401Z,15.66
2022-10-06T09:05:32.284Z,15.77
2022-10-06T09:07:54.023Z,15.80
2022-10-06T09:10:40.694Z,15.94
2022-10-06T09:12:45.702Z,15.93
2022-10-06T09:14:51.892Z,16.03
2022-10-06T09:17:00.883Z,16.27
2022-10-06T09:19:18.488Z,16.55
2022-10-06T09:21:45.842Z,16.64
2022-10-06T09:23:54.229Z,16.61
2022-10-06T09:25:57.780Z,16.57
2022-10-06T09:28:01.382Z,15.89
2022-10-06T09:30:05.014Z,16.07
2022-10-06T09:32:06.819Z,16.41
2022-10-06T09:34:17.639Z,16.60
2022-10-06T09:36:19.708Z,16.89
2022-10-06T09:38:22.583Z,17.17
2022-10-06T09:40:51.450Z,17.42
2022-10-06T09:42:53.854Z,17.36
2022-10-06T09:45:08.101Z,17.52
2022-10-06T09:47:35.847Z,17.64
2022-10-06T09:49:37.869Z,17.72
2022-10-06T09:51:39.602Z,17.79
2022-10-06T09:54:03.212Z,17.88
2022-10-06T09:56:12.390Z,18.06
2022-10-06T09:58:21.195Z,18.18
2022-10-06T10:00:28.584Z,18.27
2022-10-06T10:02:39.760Z,18.37
2022-10-06T10:04:41.642Z,18.06
2022-10-06T10:06:43.370Z,18.14
2022-10-06T10:08:45.197Z,18.08
2022-10-06T10:10:46.774Z,17.64
2022-10-06T10:12:56.637Z,17.36
2022-10-06T10:15:02.189Z,17.28
2022-10-06T10:17:19.194Z,17.23
2022-10-06T10:19:28.131Z,17.33
2022-10-06T10:21:34.080Z,17.17
2022-10-06T10:23:43.729Z,17.18
2022-10-06T10:26:30.230Z,17.35
2022-10-06T10:29:08.384Z,16.90
2022-10-06T10:31:51.477Z,16.88
2022-10-06T10:34:24.861Z,17.11
2022-10-06T10:36:56.387Z,17.27
2022-10-06T10:38:58.478Z,17.45
2022-10-06T10:41:04.837Z,17.53
2022-10-06T10:43:18.787Z,17.62
2022-10-06T10:45:34.665Z,18.09
2022-10-06T10:47:42.784Z,18.49
2022-10-06T10:49:52.377Z,18.85
2022-10-06T10:51:59.106Z,19.14
2022-10-06T10:54:05.224Z,19.00
2022-10-06T10:56:12.465Z,18.91
2022-10-06T10:58:36.725Z,18.92
2022-10-06T11:00:41.739Z,18.93
2022-10-06T11:02:43.392Z,18.98
2022-10-06T11:04:49.539Z,18.74
2022-10-06T11:07:36.445Z,18.90
2022-10-06T11:10:01.484Z,18.87
2022-10-06T11:12:37.398Z,18.97
2022-10-06T11:14:57.598Z,19.28
2022-10-06T11:17:31.664Z,19.55
2022-10-06T11:19:36.592Z,19.73
2022-10-06T11:21:56.226Z,19.91
2022-10-06T11:24:03.374Z,20.07
2022-10-06T11:26:25.034Z,20.19
2022-10-06T11:28:44.824Z,20.31
2022-10-06T11:31:00.302Z,20.44
2022-10-06T11:33:27.617Z,20.59
2022-10-06T11:35:37.581Z,20.63
2022-10-06T11:37:47.646Z,20.64
2022-10-06T11:40:03.632Z,20.71
2022-10-06T11:42:26.506Z,20.79
2022-10-06T11:44:37.987Z,20.81
2022-10-06T11:46:45.104Z,20.88
2022-10-06T11:48:48.168Z,20.72
2022-10-06T11:50:53.143Z,20.53
2022-10-06T11:52:55.321Z,20.52
2022-10-06T11:55:17.944Z,20.48
2022-10-06T11:57:25.148Z,20.54
2022-10-06T11:59:31.531Z,20.65
2022-10-06T12:01:39.434Z,20.67
2022-10-06T12:03:46.382Z,20.70
2022-10-06T12:05:56.608Z,20.77
2022-10-06T12:07:59.206Z,20.81
2022-10-06T12:10:28.524Z,20.89
2022-10-06T12:12:30.034Z,20.97
2022-10-06T12:17:44.290Z,20.48
2022-10-06T12:19:52.028Z,20.63
2022-10-06T12:22:39.266Z,20.82
2022-10-06T12:24:52.074Z,20.83
2022-10-06T12:26:58.514Z,20.40
2022-10-06T12:29:38.067Z,20.19
2022-10-06T12:31:49.145Z,19.91
2022-10-06T12:33:50.960Z,19.87
2022-10-06T12:36:02.161Z,19.86
2022-10-06T12:38:24.597Z,19.84
2022-10-06T12:40:47.603Z,19.88
2022-10-06T12:42:49.232Z,19.99
2022-10-06T12:44:51.828Z,20.11
2022-10-06T12:46:55.033Z,20.07
2022-10-06T12:49:12.535Z,19.99
2022-10-06T12:51:30.504Z,19.90
2022-10-06T12:53:38.536Z,19.97
2022-10-06T12:55:51.799Z,20.06
2022-10-06T12:57:54.211Z,20.13
2022-10-06T12:59:55.886Z,19.99
2022-10-06T13:02:03.030Z,19.99
2022-10-06T13:04:04.944Z,20.01
2022-10-06T13:06:08.218Z,20.13
2022-10-06T13:08:25.618Z,20.27
2022-10-06T13:10:32.517Z,20.42
2022-10-06T13:12:38.279Z,20.57
2022-10-06T13:14:40.780Z,20.64
2022-10-06T13:16:45.712Z,20.69
2022-10-06T13:18:48.570Z,20.56
2022-10-06T13:20:52.467Z,20.38
2022-10-06T13:22:59.725Z,20.33
2022-10-06T13:25:01.436Z,20.29
2022-10-06T13:27:03.074Z,20.39
2022-10-06T13:29:05.956Z,20.46
2022-10-06T13:31:30.394Z,20.55
2022-10-06T13:33:40.621Z,20.59
2022-10-06T13:35:42.557Z,20.50
2022-10-06T13:37:44.179Z,20.49
2022-10-06T13:39:46.702Z,20.51
2022-10-06T13:41:57.121Z,20.45
2022-10-06T13:44:04.364Z,20.45
2022-10-06T13:46:15.889Z,20.53
2022-10-06T13:48:19.123Z,20.48
2022-10-06T13:50:21.214Z,20.43
2022-10-06T13:52:33.174Z,20.44
2022-10-06T13:54:52.088Z,20.35
2022-10-06T13:56:53.784Z,20.32
2022-10-06T13:58:55.443Z,20.38
2022-10-06T14:01:02.109Z,20.47
2022-10-06T14:03:07.412Z,20.52
2022-10-06T14:05:26.508Z,20.41
2022-10-06T14:07:28.219Z,20.45
2022-10-06T14:09:31.885Z,20.40
2022-10-06T14:11:33.413Z,20.41
2022-10-06T14:13:39.653Z,20.45
2022-10-06T14:15:50.479Z,20.49
2022-10-06T14:17:57.287Z,20.55
2022-10-06T14:19:59.217Z,20.56
2022-10-06T14:22:02.513Z,20.57
2022-10-06T14:24:17.164Z,20.58
2022-10-06T14:26:23.912Z,20.63
2022-10-06T14:28:25.645Z,20.71
2022-10-06T14:30:27.302Z,20.77
2022-10-06T14:32:29.077Z,20.76
2022-10-06T14:34:33.579Z,20.75
2022-10-06T14:36:37.296Z,20.73
2022-10-06T14:38:38.923Z,20.69
2022-10-06T14:40:41.652Z,20.65
2022-10-06T14:42:43.296Z,20.61
2022-10-06T14:44:45.357Z,20.60
2022-10-06T14:46:48.710Z,20.54
2022-10-06T14:48:51.267Z,20.50
2022-10-06T14:50:52.960Z,20.45
2022-10-06T14:52:54.561Z,20.40
2022-10-06T14:54:56.371Z,20.36
2022-10-06T14:56:58.432Z,20.30
2022-10-06T14:59:03.051Z,20.28
2022-10-06T15:01:07.411Z,20.24
2022-10-06T15:03:09.229Z,20.21
2022-10-06T15:05:10.893Z,20.18
2022-10-06T15:07:30.851Z,20.15
2022-10-06T15:09:32.856Z,20.10
2022-10-06T15:11:34.989Z,20.04
2022-10-06T15:13:37.152Z,19.98
2022-10-06T15:15:38.994Z,19.93
2022-10-06T15:17:40.574Z,19.88
2022-10-06T15:19:42.212Z,19.84
2022-10-06T15:21:47.551Z,19.79
2022-10-06T15:23:55.265Z,19.71
2022-10-06T15:26:15.330Z,19.66
2022-10-06T15:28:35.409Z,19.59
2022-10-06T15:30:40.078Z,19.51
2022-10-06T15:32:41.791Z,19.40
2022-10-06T15:34:43.464Z,19.32
2022-10-06T15:36:45.025Z,19.26
2022-10-06T15:38:47.013Z,19.18
2022-10-06T15:40:48.590Z,19.09
2022-10-06T15:42:50.168Z,19.00
2022-10-06T15:44:52.120Z,18.92
2022-10-06T15:46:55.547Z,18.87
2022-10-06T15:49:00.916Z,18.78
2022-10-06T15:51:03.544Z,18.72
2022-10-06T15:53:06.168Z,18.66
2022-10-06T15:55:10.573Z,18.58
2022-10-06T15:57:17.896Z,18.51
2022-10-06T15:59:25.105Z,18.44
2022-10-06T16:01:34.183Z,18.36
2022-10-06T16:03:41.123Z,18.29
2022-10-06T16:05:52.633Z,18.20
2022-10-06T16:07:54.271Z,18.15
2022-10-06T16:09:55.872Z,18.06
2022-10-06T16:11:58.422Z,17.98
2022-10-06T16:14:00.083Z,17.89
2022-10-06T16:16:01.708Z,17.84
2022-10-06T16:18:03.689Z,17.78
2022-10-06T16:20:05.645Z,17.74
2022-10-06T16:22:10.507Z,17.68
2022-10-06T16:24:12.350Z,17.63
2022-10-06T16:26:13.965Z,17.58
2022-10-06T16:28:15.930Z,17.55
2022-10-06T16:30:17.602Z,17.49
2022-10-06T16:32:19.210Z,17.44
2022-10-06T16:34:20.831Z,17.40
2022-10-06T16:36:22.893Z,17.36
2022-10-06T16:38:25.331Z,17.33
2022-10-06T16:40:26.981Z,17.31
2022-10-06T16:42:28.692Z,17.25
2022-10-06T16:44:30.242Z,17.21
2022-10-06T16:46:33.010Z,17.14
2022-10-06T16:48:37.204Z,17.11
2022-10-06T16:50:38.798Z,17.07
2022-10-06T16:52:40.926Z,17.03
2022-10-06T16:54:42.805Z,17.00
2022-10-06T16:56:48.711Z,16.92
2022-10-06T16:58:58.146Z,16.80
2022-10-06T17:01:00.061Z,16.73
2022-10-06T17:03:01.827Z,16.72
2022-10-06T17:05:03.827Z,16.67
2022-10-06T17:07:05.632Z,16.63
2022-10-06T17:09:10.091Z,16.59
2022-10-06T17:11:23.333Z,16.55
2022-10-06T17:13:25.154Z,16.53
2022-10-06T17:15:30.112Z,16.48
2022-10-06T17:17:35.221Z,16.46
2022-10-06T17:19:36.818Z,16.45
2022-10-06T17:21:48.129Z,16.41
2022-10-06T17:23:56.148Z,16.40
2022-10-06T17:26:04.938Z,16.38
2022-10-06T17:28:06.621Z,16.38
2022-10-06T17:30:09.143Z,16.35
2022-10-06T17:32:10.863Z,16.33
2022-10-06T17:34:20.414Z,16.30
2022-10-06T17:36:24.380Z,16.30
2022-10-06T17:38:27.897Z,16.30
2022-10-06T17:40:30.012Z,16.27
2022-10-06T17:42:31.624Z,16.23
2022-10-06T17:44:52.713Z,16.21
2022-10-06T17:46:57.252Z,16.18
2022-10-06T17:49:03.174Z,16.17
2022-10-06T17:51:04.925Z,16.15
2022-10-06T17:53:07.157Z,16.14
2022-10-06T17:55:09.043Z,16.13
2022-10-06T17:57:11.074Z,16.09
2022-10-06T17:59:15.179Z,16.07
2022-10-06T18:01:20.357Z,16.05
2022-10-06T18:03:26.696Z,16.03
2022-10-06T18:05:32.824Z,15.99
2022-10-06T18:07:38.010Z,15.99
2022-10-06T18:09:40.395Z,15.96
2022-10-06T18:11:44.355Z,15.93
2022-10-06T18:13:48.095Z,15.89
2022-10-06T18:15:51.036Z,15.89
2022-10-06T18:17:52.949Z,15.84
2022-10-06T18:19:55.529Z,15.79
2022-10-06T18:22:02.482Z,15.72
2022-10-06T18:24:06.336Z,15.69
2022-10-06T18:26:08.133Z,15.67
2022-10-06T18:28:11.996Z,15.65
2022-10-06T18:30:13.639Z,15.61
2022-10-06T18:33:26.894Z,15.60
2022-10-06T18:36:59.366Z,15.53
2022-10-06T18:39:01.361Z,15.48
2022-10-06T18:41:05.163Z,15.42
2022-10-06T18:43:06.864Z,15.35
2022-10-06T18:45:28.113Z,15.34
2022-10-06T18:47:48.411Z,15.27
2022-10-06T18:49:50.525Z,15.23
2022-10-06T18:51:58.101Z,15.20
2022-10-06T18:54:02.143Z,15.19
2022-10-06T18:56:05.156Z,15.17
2022-10-06T18:58:06.745Z,15.12
2022-10-06T19:00:10.631Z,15.10
2022-10-06T19:02:12.399Z,15.08
2022-10-06T19:04:17.429Z,15.08
2022-10-06T19:06:19.862Z,15.07
2022-10-06T19:08:21.511Z,15.03
2022-10-06T19:10:23.337Z,15.02
2022-10-06T19:12:25.076Z,15.00
2022-10-06T19:14:29.935Z,15.00
2022-10-06T19:16:31.691Z,15.00
2022-10-06T19:18:37.354Z,14.99
2022-10-06T19:20:38.888Z,14.97
2022-10-06T19:22:40.926Z,14.94
2022-10-06T19:24:44.005Z,14.91
2022-10-06T19:26:48.922Z,14.89
2022-10-06T19:28:51.331Z,14.88
2022-10-06T19:31:01.833Z,14.88
2022-10-06T19:33:04.857Z,14.86
2022-10-06T19:35:10.075Z,14.86
2022-10-06T19:37:12.331Z,14.82
2022-10-06T19:39:13.931Z,14.79
2022-10-06T19:41:35.083Z,14.77
2022-10-06T19:43:36.915Z,14.69
2022-10-06T19:45:38.822Z,14.62
2022-10-06T19:47:41.088Z,14.54
2022-10-06T19:49:43.754Z,14.45
2022-10-06T19:51:45.485Z,14.28
2022-10-06T19:53:51.207Z,13.86
2022-10-06T19:56:00.959Z,13.55
2022-10-06T19:58:02.560Z,13.32
2022-10-06T20:00:06.120Z,13.15
2022-10-06T20:02:08.699Z,13.21
2022-10-06T20:04:11.332Z,13.23
2022-10-06T20:06:14.383Z,13.29
2022-10-06T20:08:16.070Z,13.40
2022-10-06T20:10:17.764Z,13.51
2022-10-06T20:12:23.797Z,13.49
2022-10-06T20:14:26.958Z,13.50
2022-10-06T20:16:28.654Z,13.59
2022-10-06T20:18:35.293Z,13.63
2022-10-06T20:20:36.897Z,13.67
2022-10-06T20:22:38.514Z,13.71
2022-10-06T20:24:40.340Z,13.73
2022-10-06T20:26:43.213Z,13.71
2022-10-06T20:28:45.994Z,13.71
2022-10-06T20:30:50.251Z,13.73
2022-10-06T20:32:54.522Z,13.75
2022-10-06T20:34:58.054Z,13.78
2022-10-06T20:37:02.042Z,13.83
2022-10-06T20:39:24.353Z,13.82
2022-10-06T20:41:26.101Z,13.86
2022-10-06T20:43:28.388Z,13.90
2022-10-06T20:45:30.186Z,13.91
2022-10-06T20:47:31.783Z,13.96
2022-10-06T20:49:33.609Z,13.96
2022-10-06T20:51:37.899Z,13.93
2022-10-06T20:53:39.795Z,13.92
2022-10-06T20:55:51.525Z,13.88
2022-10-06T20:57:53.210Z,13.87
2022-10-06T20:59:54.844Z,13.79
2022-10-06T21:01:59.915Z,13.78
2022-10-06T21:04:02.060Z,13.77
2022-10-06T21:06:03.890Z,13.74
2022-10-06T21:08:05.460Z,13.66
2022-10-06T21:10:07.749Z,13.64
2022-10-06T21:12:09.368Z,13.62
2022-10-06T21:14:12.235Z,13.58
2022-10-06T21:16:14.324Z,13.60
2022-10-06T21:18:16.974Z,13.58
2022-10-06T21:20:18.642Z,13.55
2022-10-06T21:22:20.643Z,13.58
2022-10-06T21:24:22.244Z,13.59
2022-10-06T21:26:26.129Z,13.61
2022-10-06T21:28:28.049Z,13.63
2022-10-06T21:30:30.189Z,13.63
2022-10-06T21:32:32.701Z,13.61
2022-10-06T21:34:34.516Z,13.61
2022-10-06T21:36:36.441Z,13.63
2022-10-06T21:38:40.585Z,13.59
2022-10-06T21:40:42.237Z,13.57
2022-10-06T21:42:43.931Z,13.52
2022-10-06T21:44:45.499Z,13.42
2022-10-06T21:46:49.340Z,13.26
2022-10-06T21:48:54.989Z,13.10
2022-10-06T21:50:56.558Z,13.01
2022-10-06T21:52:58.252Z,12.97
2022-10-06T21:54:59.863Z,12.93
2022-10-06T21:57:01.476Z,12.89
2022-10-06T21:59:03.955Z,12.90
2022-10-06T22:01:06.588Z,12.95
2022-10-06T22:03:08.334Z,12.96
2022-10-06T22:05:10.096Z,12.98
2022-10-06T22:07:11.749Z,13.00
2022-10-06T22:09:16.243Z,13.06
2022-10-06T22:11:24.734Z,13.07
2022-10-06T22:13:26.300Z,13.09
2022-10-06T22:15:28.042Z,13.09
2022-10-06T22:17:29.589Z,13.07
2022-10-06T22:19:31.172Z,13.07
2022-10-06T22:21:38.079Z,13.09
2022-10-06T22:23:41.114Z,13.03
2022-10-06T22:25:42.703Z,13.00
2022-10-06T22:27:44.586Z,13.02
2022-10-06T22:29:46.370Z,13.00
2022-10-06T22:31:48.520Z,12.88
2022-10-06T22:33:51.927Z,12.67
2022-10-06T22:35:53.464Z,12.52
2022-10-06T22:37:55.026Z,12.30
2022-10-06T22:39:56.617Z,12.23
2022-10-06T22:41:58.173Z,12.25
2022-10-06T22:44:00.182Z,12.26
2022-10-06T22:46:02.591Z,12.33
2022-10-06T22:48:04.188Z,12.41
2022-10-06T22:50:07.305Z,12.51
2022-10-06T22:52:08.984Z,12.56
2022-10-06T22:54:16.540Z,12.56
2022-10-06T22:56:18.167Z,12.56
2022-10-06T22:58:19.836Z,12.56
2022-10-06T23:00:21.567Z,12.49
2022-10-06T23:02:23.298Z,12.47
2022-10-06T23:04:24.878Z,12.50
2022-10-06T23:06:27.038Z,12.54
2022-10-06T23:08:34.137Z,12.59
2022-10-06T23:10:36.904Z,12.65
2022-10-06T23:12:38.551Z,12.69
2022-10-06T23:14:40.223Z,12.74
2022-10-06T23:16:41.838Z,12.75
2022-10-06T23:18:45.077Z,12.75
2022-10-06T23:20:46.955Z,12.77
2022-10-06T23:22:48.571Z,12.75
2022-10-06T23:24:50.304Z,12.70
2022-10-06T23:26:52.201Z,12.69
2022-10-06T23:28:56.316Z,12.68
2022-10-06T23:30:58.006Z,12.68
2022-10-06T23:32:59.617Z,12.70
2022-10-06T23:35:01.217Z,12.68
2022-10-06T23:37:03.253Z,12.64
2022-10-06T23:39:05.005Z,12.63
2022-10-06T23:41:07.709Z,12.62
2022-10-06T23:43:09.311Z,12.60
2022-10-06T23:45:10.985Z,12.58
2022-10-06T23:47:12.634Z,12.55
2022-10-06T23:49:14.218Z,12.48
2022-10-06T23:51:16.699Z,12.45
2022-10-06T23:53:18.280Z,12.40
2022-10-06T23:55:19.808Z,12.41
2022-10-06T23:57:21.443Z,12.44
2022-10-06T23:59:23.197Z,12.47
